| time (UTC) | temp F | wind direction | speed MPH | gust MPH | rain 1hr in | rain 24hr in | rain mn in | humidity % | barometer mb |
| 20260506003831 | 76 | 346 | 9.0 | 12.0 | 0.00 | 0.00 | 0.00 | 29 | 1002.8 |
| 20260506002830 | 76 | 356 | 7.0 | 8.0 | 0.00 | 0.00 | 0.00 | 28 | 1002.8 |
| 20260506002329 | 77 | 41 | 5.0 | 8.0 | 0.00 | 0.00 | 0.00 | 27 | 1002.8 |
| 20260506001832 | 77 | 317 | 3.0 | 10.0 | 0.00 | 0.00 | 0.00 | 26 | 1002.8 |
| 20260506001328 | 77 | 337 | 5.0 | 11.0 | 0.00 | 0.00 | 0.00 | 26 | 1002.8 |
| 20260506000330 | 77 | 7 | 7.0 | 11.0 | 0.00 | 0.00 | 0.00 | 26 | 1002.8 |
| 20260505235829 | 78 | 356 | 5.0 | 12.0 | 0.00 | 0.00 | 0.00 | 26 | 1002.8 |
| 20260505234325 | 79 | 5 | 5.0 | 11.0 | 0.00 | 0.00 | 0.00 | 25 | 1002.8 |
| 20260505233322 | 79 | 46 | 4.0 | 11.0 | 0.00 | 0.00 | 0.00 | 24 | 1002.8 |
| 20260505232823 | 79 | 252 | 7.0 | 15.0 | 0.00 | 0.00 | 0.00 | 24 | 1002.8 |
| 20260505231824 | 80 | 329 | 4.0 | 14.0 | 0.00 | 0.00 | 0.00 | 24 | 1001.8 |
| 20260505231326 | 81 | 330 | 5.0 | 12.0 | 0.00 | 0.00 | 0.00 | 24 | 1001.8 |
| 20260505230903 | 82 | 342 | 8.0 | 10.0 | 0.00 | 0.00 | 0.00 | 23 | 1001.8 |
| 20260505230824 | 82 | 342 | 8.0 | 10.0 | 0.00 | 0.00 | 0.00 | 23 | 1001.8 |
| 20260505230326 | 83 | 340 | 5.0 | 11.0 | 0.00 | 0.00 | 0.00 | 20 | 1001.8 |
| 20260505225824 | 84 | 347 | 7.0 | 9.0 | 0.00 | 0.00 | 0.00 | 19 | 1001.8 |
| 20260505224824 | 84 | 14 | 7.0 | 12.0 | 0.00 | 0.00 | 0.00 | 19 | 1001.8 |
| 20260505224326 | 84 | 305 | 6.0 | 12.0 | 0.00 | 0.00 | 0.00 | 18 | 1001.8 |
| 20260505223322 | 85 | 288 | 6.0 | 9.0 | 0.00 | 0.00 | 0.00 | 18 | 1001.8 |
| 20260505222824 | 87 | 318 | 5.0 | 12.0 | 0.00 | 0.00 | 0.00 | 18 | 1001.8 |
| 20260505222317 | 86 | 351 | 4.0 | 12.0 | 0.00 | 0.00 | 0.00 | 18 | 1001.8 |
| 20260505221819 | 87 | 6 | 8.0 | 8.0 | 0.00 | 0.00 | 0.00 | 18 | 1001.8 |
| 20260505221321 | 90 | 297 | 4.0 | 7.0 | 0.00 | 0.00 | 0.00 | 17 | 1001.8 |
| 20260505220820 | 90 | 341 | 3.0 | 8.0 | 0.00 | 0.00 | 0.00 | 17 | 1001.8 |
| 20260505220322 | 90 | 276 | 3.0 | 10.0 | 0.00 | 0.00 | 0.00 | 17 | 1001.8 |
| 20260505215823 | 90 | 294 | 5.0 | 7.0 | 0.00 | 0.00 | 0.00 | 17 | 1001.8 |
| 20260505214824 | 90 | 321 | 5.0 | 7.0 | 0.00 | 0.00 | 0.00 | 17 | 1001.8 |
| 20260505214326 | 91 | 299 | 4.0 | 5.0 | 0.00 | 0.00 | 0.00 | 17 | 1001.8 |
| 20260505213327 | 91 | 204 | 3.0 | 7.0 | 0.00 | 0.00 | 0.00 | 17 | 1001.8 |
| 20260505212828 | 91 | 259 | 3.0 | 6.0 | 0.00 | 0.00 | 0.00 | 17 | 1001.8 |
| 20260505211829 | 90 | 271 | 4.0 | 7.0 | 0.00 | 0.00 | 0.00 | 17 | 1001.8 |
| 20260505211331 | 90 | 208 | 5.0 | 8.0 | 0.00 | 0.00 | 0.00 | 17 | 1001.8 |
| 20260505210929 | 90 | 187 | 4.0 | 12.0 | 0.00 | 0.00 | 0.00 | 17 | 1001.8 |
| 20260505210830 | 90 | 187 | 4.0 | 12.0 | 0.00 | 0.00 | 0.00 | 17 | 1001.8 |
| 20260505210331 | 90 | 29 | 4.0 | 11.0 | 0.00 | 0.00 | 0.00 | 17 | 1001.8 |
| 20260505205824 | 89 | 223 | 6.0 | 13.0 | 0.00 | 0.00 | 0.00 | 17 | 1001.8 |
| 20260505204825 | 90 | 183 | 4.0 | 10.0 | 0.00 | 0.00 | 0.00 | 18 | 1001.8 |
| 20260505204326 | 89 | 188 | 5.0 | 11.0 | 0.00 | 0.00 | 0.00 | 17 | 1001.8 |
| 20260505203826 | 90 | 261 | 4.0 | 7.0 | 0.00 | 0.00 | 0.00 | 17 | 1001.8 |
| 20260505202829 | 88 | 235 | 10.0 | 10.0 | 0.00 | 0.00 | 0.00 | 18 | 1001.8 |
| 20260505201830 | 89 | 176 | 4.0 | 12.0 | 0.00 | 0.00 | 0.00 | 18 | 1002.8 |
| 20260505201327 | 89 | 202 | 5.0 | 10.0 | 0.00 | 0.00 | 0.00 | 18 | 1002.8 |
| 20260505200826 | 88 | 213 | 7.0 | 10.0 | 0.00 | 0.00 | 0.00 | 19 | 1002.8 |
| 20260505200327 | 88 | 198 | 7.0 | 15.0 | 0.00 | 0.00 | 0.00 | 19 | 1002.8 |
| 20260505195829 | 88 | 142 | 7.0 | 12.0 | 0.00 | 0.00 | 0.00 | 19 | 1002.8 |
| 20260505195328 | 89 | 65 | 6.0 | 16.0 | 0.00 | 0.00 | 0.00 | 18 | 1002.8 |
| 20260505194830 | 88 | 100 | 6.0 | 18.0 | 0.00 | 0.00 | 0.00 | 20 | 1002.8 |
| 20260505194332 | 87 | 184 | 9.0 | 13.0 | 0.00 | 0.00 | 0.00 | 20 | 1002.8 |
| 20260505193830 | 87 | 210 | 10.0 | 18.0 | 0.00 | 0.00 | 0.00 | 20 | 1002.8 |
| 20260505193332 | 88 | 131 | 6.0 | 12.0 | 0.00 | 0.00 | 0.00 | 21 | 1002.8 |
| 20260505192333 | 87 | 226 | 10.0 | 19.0 | 0.00 | 0.00 | 0.00 | 22 | 1002.8 |
| 20260505191337 | 86 | 220 | 10.0 | 12.0 | 0.00 | 0.00 | 0.00 | 23 | 1002.8 |
| 20260505190835 | 87 | 7 | 7.0 | 12.0 | 0.00 | 0.00 | 0.00 | 22 | 1002.8 |
| 20260505190332 | 87 | 206 | 7.0 | 22.0 | 0.00 | 0.00 | 0.00 | 24 | 1002.8 |
| 20260505185834 | 87 | 150 | 6.0 | 15.0 | 0.00 | 0.00 | 0.00 | 23 | 1002.8 |
| 20260505185332 | 86 | 214 | 10.0 | 13.0 | 0.00 | 0.00 | 0.00 | 25 | 1002.8 |
| 20260505184825 | 86 | 226 | 7.0 | 20.0 | 0.00 | 0.00 | 0.00 | 26 | 1002.8 |
| 20260505184327 | 84 | 156 | 11.0 | 15.0 | 0.00 | 0.00 | 0.00 | 29 | 1002.8 |
| 20260505183826 | 85 | 196 | 8.0 | 18.0 | 0.00 | 0.00 | 0.00 | 29 | 1002.8 |
| 20260505183328 | 84 | 197 | 10.0 | 20.0 | 0.00 | 0.00 | 0.00 | 30 | 1002.8 |
| 20260505182328 | 83 | 217 | 11.0 | 16.0 | 0.00 | 0.00 | 0.00 | 31 | 1002.8 |
| 20260505181830 | 83 | 184 | 7.0 | 19.0 | 0.00 | 0.00 | 0.00 | 31 | 1002.8 |
| 20260505180830 | 83 | 176 | 9.0 | 18.0 | 0.00 | 0.00 | 0.00 | 30 | 1002.8 |
| 20260505180327 | 82 | 159 | 10.0 | 18.0 | 0.00 | 0.00 | 0.00 | 32 | 1002.8 |
| 20260505175830 | 82 | 141 | 11.0 | 21.0 | 0.00 | 0.00 | 0.00 | 31 | 1002.8 |
| 20260505175328 | 82 | 188 | 15.0 | 18.0 | 0.00 | 0.00 | 0.00 | 34 | 1002.8 |
| 20260505174825 | 82 | 198 | 12.0 | 18.0 | 0.00 | 0.00 | 0.00 | 33 | 1002.8 |
| 20260505174322 | 81 | 226 | 15.0 | 18.0 | 0.00 | 0.00 | 0.00 | 34 | 1002.8 |
| 20260505173821 | 81 | 152 | 13.0 | 15.0 | 0.00 | 0.00 | 0.00 | 35 | 1002.8 |
| 20260505173323 | 81 | 216 | 11.0 | 14.0 | 0.00 | 0.00 | 0.00 | 34 | 1002.8 |
| 20260505172825 | 81 | 242 | 9.0 | 18.0 | 0.00 | 0.00 | 0.00 | 36 | 1002.8 |
| 20260505172323 | 80 | 187 | 15.0 | 21.0 | 0.00 | 0.00 | 0.00 | 37 | 1002.8 |
| 20260505171825 | 80 | 215 | 15.0 | 20.0 | 0.00 | 0.00 | 0.00 | 38 | 1002.8 |
| 20260505171323 | 79 | 203 | 12.0 | 22.0 | 0.00 | 0.00 | 0.00 | 38 | 1002.8 |
| 20260505170821 | 79 | 189 | 13.0 | 22.0 | 0.00 | 0.00 | 0.00 | 39 | 1002.8 |
| 20260505170322 | 79 | 192 | 14.0 | 12.0 | 0.00 | 0.00 | 0.00 | 39 | 1002.8 |
| 20260505165825 | 80 | 158 | 6.0 | 20.0 | 0.00 | 0.00 | 0.00 | 37 | 1002.8 |
| 20260505164825 | 79 | 212 | 11.0 | 20.0 | 0.00 | 0.00 | 0.00 | 39 | 1002.8 |
| 20260505164327 | 78 | 184 | 16.0 | 16.0 | 0.00 | 0.00 | 0.00 | 40 | 1002.8 |
| 20260505163825 | 79 | 193 | 10.0 | 18.0 | 0.00 | 0.00 | 0.00 | 40 | 1002.8 |
| 20260505163327 | 79 | 198 | 9.0 | 20.0 | 0.00 | 0.00 | 0.00 | 40 | 1002.8 |
| 20260505162829 | 79 | 182 | 9.0 | 19.0 | 0.00 | 0.00 | 0.00 | 41 | 1002.8 |
| 20260505162328 | 78 | 186 | 14.0 | 24.0 | 0.00 | 0.00 | 0.00 | 41 | 1002.8 |
| 20260505161829 | 77 | 226 | 14.0 | 21.0 | 0.00 | 0.00 | 0.00 | 42 | 1002.8 |
| 20260505161332 | 78 | 213 | 13.0 | 25.0 | 0.00 | 0.00 | 0.00 | 42 | 1002.8 |
| 20260505160825 | 77 | 212 | 14.0 | 21.0 | 0.00 | 0.00 | 0.00 | 43 | 1002.8 |
| 20260505160326 | 77 | 178 | 15.0 | 21.0 | 0.00 | 0.00 | 0.00 | 43 | 1002.8 |
| 20260505153327 | 76 | 115 | 13.0 | 24.0 | 0.00 | 0.00 | 0.00 | 49 | 1002.8 |
| 20260505152322 | 75 | 211 | 15.0 | 19.0 | 0.00 | 0.00 | 0.00 | 50 | 1002.8 |
| 20260505151824 | 75 | 146 | 14.0 | 16.0 | 0.00 | 0.00 | 0.00 | 51 | 1002.8 |
| 20260505150326 | 75 | 187 | 12.0 | 24.0 | 0.00 | 0.00 | 0.00 | 51 | 1002.8 |
| 20260505124820 | 72 | 187 | 9.0 | 18.0 | 0.00 | 0.00 | 0.00 | 68 | 1001.8 |
| 20260505124318 | 72 | 227 | 10.0 | 20.0 | 0.00 | 0.00 | 0.00 | 68 | 1001.8 |
| 20260505123816 | 72 | 208 | 13.0 | 20.0 | 0.00 | 0.00 | 0.00 | 68 | 1001.8 |
| 20260505123318 | 72 | 147 | 10.0 | 20.0 | 0.00 | 0.00 | 0.00 | 68 | 1001.8 |
| 20260505122820 | 72 | 178 | 12.0 | 19.0 | 0.00 | 0.00 | 0.00 | 68 | 1001.8 |
| 20260505122319 | 72 | 204 | 10.0 | 20.0 | 0.00 | 0.00 | 0.00 | 68 | 1001.8 |
| 20260505120821 | 72 | 230 | 10.0 | 15.0 | 0.00 | 0.00 | 0.00 | 69 | 1001.8 |
| 20260505120323 | 72 | 158 | 11.0 | 16.0 | 0.00 | 0.00 | 0.00 | 69 | 1001.8 |
| 20260505115825 | 72 | 219 | 9.0 | 19.0 | 0.00 | 0.00 | 0.00 | 69 | 1001.8 |
| 20260505115323 | 72 | 192 | 14.0 | 18.0 | 0.00 | 0.00 | 0.00 | 70 | 1001.8 |
| 20260505114327 | 72 | 184 | 13.0 | 18.0 | 0.00 | 0.00 | 0.00 | 70 | 1001.8 |
| 20260505113826 | 72 | 205 | 10.0 | 16.0 | 0.00 | 0.00 | 0.00 | 71 | 1001.8 |
| 20260505113428 | 72 | 216 | 10.0 | 15.0 | 0.00 | 0.00 | 0.00 | 71 | 1001.8 |
| 20260505113328 | 72 | 216 | 10.0 | 15.0 | 0.00 | 0.00 | 0.00 | 71 | 1001.8 |
| 20260505112829 | 72 | 218 | 12.0 | 15.0 | 0.00 | 0.00 | 0.00 | 72 | 1001.8 |
| 20260505112328 | 72 | 172 | 9.0 | 17.0 | 0.00 | 0.00 | 0.00 | 72 | 1001.8 |
| 20260505111327 | 72 | 201 | 12.0 | 14.0 | 0.00 | 0.00 | 0.00 | 73 | 1001.8 |
| 20260505110827 | 72 | 235 | 11.0 | 17.0 | 0.00 | 0.00 | 0.00 | 74 | 1001.8 |
| 20260505110328 | 72 | 222 | 11.0 | 18.0 | 0.00 | 0.00 | 0.00 | 74 | 1001.8 |
| 20260505101831 | 72 | 202 | 9.0 | 16.0 | 0.00 | 0.00 | 0.00 | 74 | 1001.8 |
| 20260505101333 | 72 | 169 | 12.0 | 19.0 | 0.00 | 0.00 | 0.00 | 74 | 1001.8 |
| 20260505100832 | 72 | 214 | 12.0 | 18.0 | 0.00 | 0.00 | 0.00 | 74 | 1001.8 |
| 20260505100328 | 71 | 183 | 10.0 | 16.0 | 0.00 | 0.00 | 0.00 | 74 | 1001.8 |
| 20260505095831 | 71 | 207 | 12.0 | 19.0 | 0.00 | 0.00 | 0.00 | 74 | 1001.8 |
| 20260505095325 | 72 | 195 | 14.0 | 16.0 | 0.00 | 0.00 | 0.00 | 73 | 1001.8 |
| 20260505094826 | 71 | 233 | 10.0 | 19.0 | 0.00 | 0.00 | 0.00 | 73 | 1001.8 |
| 20260505094328 | 72 | 194 | 12.0 | 19.0 | 0.00 | 0.00 | 0.00 | 73 | 1001.8 |
| 20260505093828 | 71 | 192 | 12.0 | 15.0 | 0.00 | 0.00 | 0.00 | 73 | 1001.8 |
| 20260505093324 | 72 | 205 | 12.0 | 16.0 | 0.00 | 0.00 | 0.00 | 73 | 1001.8 |
| 20260505092827 | 72 | 203 | 13.0 | 17.0 | 0.00 | 0.00 | 0.00 | 72 | 1001.8 |
| 20260505092325 | 72 | 239 | 10.0 | 18.0 | 0.00 | 0.00 | 0.00 | 72 | 1001.8 |
| 20260505091827 | 71 | 216 | 12.0 | 17.0 | 0.00 | 0.00 | 0.00 | 72 | 1001.8 |
| 20260505091329 | 72 | 188 | 13.0 | 15.0 | 0.00 | 0.00 | 0.00 | 72 | 1001.8 |
| 20260505090828 | 72 | 210 | 10.0 | 17.0 | 0.00 | 0.00 | 0.00 | 71 | 1001.8 |
| 20260505090329 | 72 | 193 | 15.0 | 17.0 | 0.00 | 0.00 | 0.00 | 71 | 1001.8 |
| 20260505085832 | 72 | 203 | 12.0 | 17.0 | 0.00 | 0.00 | 0.00 | 70 | 1001.8 |
| 20260505085330 | 72 | 197 | 11.0 | 21.0 | 0.00 | 0.00 | 0.00 | 70 | 1001.8 |
| 20260505084832 | 72 | 217 | 11.0 | 20.0 | 0.00 | 0.00 | 0.00 | 69 | 1001.8 |
| 20260505084334 | 72 | 210 | 14.0 | 18.0 | 0.00 | 0.00 | 0.00 | 69 | 1001.8 |
| 20260505083828 | 72 | 172 | 12.0 | 18.0 | 0.00 | 0.00 | 0.00 | 68 | 1001.8 |
| 20260505083329 | 72 | 208 | 11.0 | 15.0 | 0.00 | 0.00 | 0.00 | 68 | 1001.8 |
| 20260505082831 | 72 | 197 | 10.0 | 17.0 | 0.00 | 0.00 | 0.00 | 67 | 1001.8 |
| 20260505082330 | 72 | 202 | 10.0 | 15.0 | 0.00 | 0.00 | 0.00 | 66 | 1001.8 |
| 20260505081831 | 72 | 136 | 12.0 | 20.0 | 0.00 | 0.00 | 0.00 | 66 | 1001.8 |
| 20260505081333 | 72 | 153 | 13.0 | 18.0 | 0.00 | 0.00 | 0.00 | 65 | 1001.8 |
| 20260505080329 | 72 | 231 | 12.0 | 15.0 | 0.00 | 0.00 | 0.00 | 63 | 1001.8 |
| 20260505075831 | 72 | 190 | 10.0 | 20.0 | 0.00 | 0.00 | 0.00 | 63 | 1001.8 |
| 20260505075329 | 72 | 144 | 10.0 | 18.0 | 0.00 | 0.00 | 0.00 | 62 | 1001.8 |
| 20260505074334 | 72 | 202 | 10.0 | 18.0 | 0.00 | 0.00 | 0.00 | 60 | 1002.8 |
| 20260505073832 | 72 | 213 | 11.0 | 16.0 | 0.00 | 0.00 | 0.00 | 59 | 1002.8 |
| 20260505073334 | 72 | 229 | 9.0 | 16.0 | 0.00 | 0.00 | 0.00 | 58 | 1002.8 |
| 20260505072836 | 72 | 159 | 10.0 | 21.0 | 0.00 | 0.00 | 0.00 | 57 | 1002.8 |
| 20260505072334 | 72 | 148 | 10.0 | 17.0 | 0.00 | 0.00 | 0.00 | 55 | 1002.8 |
| 20260505071837 | 72 | 193 | 10.0 | 13.0 | 0.00 | 0.00 | 0.00 | 54 | 1002.8 |
| 20260505071339 | 72 | 216 | 10.0 | 18.0 | 0.00 | 0.00 | 0.00 | 53 | 1002.8 |
| 20260505070836 | 72 | 208 | 10.0 | 14.0 | 0.00 | 0.00 | 0.00 | 52 | 1002.8 |
| 20260505070334 | 72 | 138 | 10.0 | 15.0 | 0.00 | 0.00 | 0.00 | 51 | 1002.8 |
| 20260505065836 | 72 | 210 | 9.0 | 16.0 | 0.00 | 0.00 | 0.00 | 51 | 1002.8 |
| 20260505065334 | 72 | 195 | 7.0 | 16.0 | 0.00 | 0.00 | 0.00 | 50 | 1002.8 |
| 20260505064836 | 73 | 192 | 10.0 | 21.0 | 0.00 | 0.00 | 0.00 | 49 | 1003.8 |
| 20260505063837 | 73 | 199 | 11.0 | 15.0 | 0.00 | 0.00 | 0.00 | 48 | 1003.8 |
| 20260505062339 | 73 | 217 | 8.0 | 20.0 | 0.00 | 0.00 | 0.00 | 46 | 1003.8 |
| 20260505061840 | 73 | 215 | 7.0 | 16.0 | 0.00 | 0.00 | 0.00 | 46 | 1003.8 |
| 20260505060836 | 73 | 182 | 8.0 | 18.0 | 0.00 | 0.00 | 0.00 | 44 | 1003.8 |
| 20260505055840 | 74 | 191 | 9.0 | 15.0 | 0.00 | 0.00 | 0.00 | 43 | 1003.8 |
| 20260505055338 | 74 | 215 | 11.0 | 16.0 | 0.00 | 0.00 | 0.00 | 43 | 1003.8 |
| 20260505054841 | 74 | 202 | 9.0 | 15.0 | 0.00 | 0.00 | 0.00 | 42 | 1003.8 |
| 20260505053841 | 74 | 223 | 10.0 | 15.0 | 0.00 | 0.00 | 0.00 | 42 | 1003.8 |
| 20260505052343 | 74 | 202 | 9.0 | 15.0 | 0.00 | 0.00 | 0.00 | 40 | 1002.8 |
| 20260505051347 | 75 | 164 | 8.0 | 17.0 | 0.00 | 0.00 | 0.00 | 39 | 1003.8 |
| 20260505050845 | 75 | 207 | 9.0 | 15.0 | 0.00 | 0.00 | 0.00 | 39 | 1003.8 |
| 20260505041356 | 76 | 139 | 9.0 | 14.0 | 0.00 | 0.00 | 0.00 | 37 | 1003.8 |
| 20260505040855 | 76 | 191 | 7.0 | 15.0 | 0.00 | 0.00 | 0.00 | 37 | 1003.8 |
| 20260505040357 | 76 | 193 | 9.0 | 15.0 | 0.00 | 0.00 | 0.00 | 37 | 1003.8 |
| 20260505035859 | 76 | 210 | 9.0 | 14.0 | 0.00 | 0.00 | 0.00 | 36 | 1003.8 |
| 20260505035357 | 76 | 172 | 8.0 | 18.0 | 0.00 | 0.00 | 0.00 | 36 | 1003.8 |
| 20260505033859 | 76 | 227 | 8.0 | 15.0 | 0.00 | 0.00 | 0.00 | 36 | 1003.8 |
| 20260505033401 | 76 | 191 | 9.0 | 16.0 | 0.00 | 0.00 | 0.00 | 36 | 1003.8 |
| 20260505032903 | 76 | 184 | 7.0 | 14.0 | 0.00 | 0.00 | 0.00 | 36 | 1003.8 |
| 20260505032402 | 76 | 185 | 8.0 | 12.0 | 0.00 | 0.00 | 0.00 | 37 | 1003.8 |
| 20260505031905 | 76 | 143 | 8.0 | 15.0 | 0.00 | 0.00 | 0.00 | 36 | 1003.8 |
| 20260505031405 | 76 | 140 | 6.0 | 14.0 | 0.00 | 0.00 | 0.00 | 36 | 1003.8 |
| 20260505030904 | 76 | 220 | 7.0 | 15.0 | 0.00 | 0.00 | 0.00 | 36 | 1003.8 |
| 20260505030407 | 76 | 194 | 7.0 | 13.0 | 0.00 | 0.00 | 0.00 | 36 | 1003.8 |
| 20260505025908 | 76 | 236 | 6.0 | 12.0 | 0.00 | 0.00 | 0.00 | 36 | 1003.8 |
| 20260505025407 | 76 | 188 | 7.0 | 12.0 | 0.00 | 0.00 | 0.00 | 35 | 1003.8 |
| 20260505024909 | 76 | 216 | 7.0 | 14.0 | 0.00 | 0.00 | 0.00 | 35 | 1003.8 |
| 20260505023411 | 76 | 223 | 5.0 | 15.0 | 0.00 | 0.00 | 0.00 | 35 | 1003.8 |
| 20260505022912 | 76 | 235 | 8.0 | 13.0 | 0.00 | 0.00 | 0.00 | 35 | 1003.8 |
| 20260505022411 | 76 | 227 | 7.0 | 14.0 | 0.00 | 0.00 | 0.00 | 35 | 1003.8 |
| 20260505021913 | 76 | 150 | 7.0 | 12.0 | 0.00 | 0.00 | 0.00 | 35 | 1003.8 |
| 20260505021415 | 76 | 132 | 10.0 | 13.0 | 0.00 | 0.00 | 0.00 | 35 | 1003.8 |
| 20260505020909 | 76 | 231 | 8.0 | 16.0 | 0.00 | 0.00 | 0.00 | 34 | 1003.8 |
| 20260505020406 | 76 | 129 | 7.0 | 13.0 | 0.00 | 0.00 | 0.00 | 34 | 1003.8 |
| 20260505015903 | 76 | 148 | 8.0 | 11.0 | 0.00 | 0.00 | 0.00 | 34 | 1003.8 |
| 20260505015403 | 76 | 197 | 7.0 | 14.0 | 0.00 | 0.00 | 0.00 | 34 | 1003.8 |
| 20260505014904 | 76 | 215 | 7.0 | 11.0 | 0.00 | 0.00 | 0.00 | 34 | 1002.8 |
| 20260505014406 | 76 | 147 | 7.0 | 11.0 | 0.00 | 0.00 | 0.00 | 34 | 1002.8 |
| 20260505013905 | 76 | 167 | 7.0 | 10.0 | 0.00 | 0.00 | 0.00 | 34 | 1002.8 |
| 20260505013406 | 76 | 143 | 8.0 | 12.0 | 0.00 | 0.00 | 0.00 | 34 | 1003.8 |
| 20260505012903 | 77 | 137 | 5.0 | 15.0 | 0.00 | 0.00 | 0.00 | 33 | 1003.8 |
| 20260505012403 | 77 | 129 | 8.0 | 12.0 | 0.00 | 0.00 | 0.00 | 33 | 1003.8 |
| 20260505011904 | 77 | 233 | 5.0 | 12.0 | 0.00 | 0.00 | 0.00 | 33 | 1003.8 |
| 20260505011405 | 77 | 147 | 7.0 | 13.0 | 0.00 | 0.00 | 0.00 | 33 | 1003.8 |
| 20260505010904 | 77 | 177 | 9.0 | 14.0 | 0.00 | 0.00 | 0.00 | 32 | 1003.8 |
| 20260505010402 | 77 | 224 | 9.0 | 12.0 | 0.00 | 0.00 | 0.00 | 32 | 1003.8 |
| 20260505005903 | 77 | 208 | 6.0 | 13.0 | 0.00 | 0.00 | 0.00 | 32 | 1003.8 |
| 20260505005402 | 77 | 117 | 8.0 | 12.0 | 0.00 | 0.00 | 0.00 | 32 | 1003.8 |
| 20260505004904 | 78 | 187 | 6.0 | 12.0 | 0.00 | 0.00 | 0.00 | 31 | 1003.8 |
| 20260505004406 | 78 | 143 | 7.0 | 12.0 | 0.00 | 0.00 | 0.00 | 31 | 1003.8 |